Aérodrome :
LOGIN :

S'inscrire | Disclaimer

   EN    FR    IT 

 










Légende :    VFR   VFR Marginal   IFR   IFR Intensif   IFR Très Intensif
Visi : 
Plafond : 
>= 8 km
>= 3000ft
5 à 8 km
1000 à 3000 ft
1500m à 5 km
500 à 1000 ft
800 à 1500m
200 à 500 ft
< 800m
< 200 ft
Symboles :   Orages  Brouillard  Fortes neiges  Fortes précipitations  Vent > 20 kt
SIGMETs :   Divers  Orages  Givrage  Turbulence  Onde Orograph.  Cendres Volcan.






- Altitude de l'aérodrome : 313 ft
- Code IATA : LEH


LFOH - Le Havre Octeville

DERNIER METAR :
  • 182230Z AUTO 20013KT 9999 OVC018 07/05 Q1019

METARs EXPIRÉS :
  • 182200Z AUTO 19013KT 9999 BKN006 OVC021 06/05 Q1019
  • 182130Z AUTO 20013KT 8000 BKN012 OVC017 07/05 Q1020
  • 182100Z AUTO 20012KT 9999 BKN022 BKN049 BKN056 07/05 Q1020
  • 182030Z AUTO 19011KT 9999 OVC027 07/04 Q1021
  • 182000Z AUTO 19010KT 9999 BKN036 OVC043 07/04 Q1021

TAF TAF LFOH
Valide du 18 à 12h jusqu'au 19 à 12h UTC


181100Z 1812/1912 23007KT 9999 BKN017
BECMG 1818/1820 20017KT
TEMPO 1820/1909 4000 RA OVC010
TEMPO 1901/1909 20020G30KT
ATIS : +33 2 35 54 64 93



MET'MAP, la Météo Aéronautique d'un coup d'oeil ! - Copyright ORBIFLY Décembre 2007 - Disclaimer

ORBIFLY MET'MAP TEAM :

Programmation & Développement : Alexandra Zaïnal
Sur une idée originale de : Baudouin d'Aumeries
Assistance à la programmation : Marc-Olivier Méhu
Soutien technique & logistique : Manuel Goepfert

Contact : metmap@orbifly.com




SOURCES & CREDITS :

   NOAA